createdAt,value
2017-10-27T00:01:45.376Z,11.00
2017-10-27T00:04:12.940Z,11.00
2017-10-27T00:06:40.514Z,11.00
2017-10-27T00:09:08.876Z,11.00
2017-10-27T00:11:37.680Z,11.00
2017-10-27T00:14:05.457Z,11.10
2017-10-27T00:16:33.028Z,11.10
2017-10-27T00:19:01.366Z,11.10
2017-10-27T00:21:28.965Z,11.00
2017-10-27T00:23:58.880Z,11.00
2017-10-27T00:26:27.236Z,11.00
2017-10-27T00:28:54.804Z,11.10
2017-10-27T00:31:22.401Z,11.10
2017-10-27T00:33:49.974Z,11.10
2017-10-27T00:36:17.587Z,11.10
2017-10-27T00:38:45.161Z,11.10
2017-10-27T00:41:13.523Z,11.10
2017-10-27T00:43:41.852Z,11.10
2017-10-27T00:46:09.473Z,11.10
2017-10-27T00:48:37.040Z,11.10
2017-10-27T00:51:04.697Z,11.00
2017-10-27T00:53:32.281Z,11.00
2017-10-27T00:56:00.753Z,11.00
2017-10-27T00:58:29.096Z,10.90
2017-10-27T01:00:58.700Z,11.00
2017-10-27T01:03:26.388Z,11.00
2017-10-27T01:05:53.960Z,11.00
2017-10-27T01:08:22.321Z,10.90
2017-10-27T01:10:51.790Z,10.90
2017-10-27T01:13:19.763Z,10.90
2017-10-27T01:15:49.164Z,10.80
2017-10-27T01:18:17.133Z,10.80
2017-10-27T01:20:45.001Z,10.70
2017-10-27T01:23:12.870Z,10.70
2017-10-27T01:25:40.474Z,10.80
2017-10-27T01:28:08.064Z,10.70
2017-10-27T01:30:35.629Z,10.70
2017-10-27T01:33:03.225Z,10.60
2017-10-27T01:35:30.792Z,10.60
2017-10-27T01:37:59.952Z,10.60
2017-10-27T01:40:27.524Z,10.60
2017-10-27T01:42:55.149Z,10.60
2017-10-27T01:45:23.512Z,10.60
2017-10-27T01:47:51.134Z,10.60
2017-10-27T01:50:18.721Z,10.60
2017-10-27T01:52:46.285Z,10.60
2017-10-27T01:55:13.876Z,10.60
2017-10-27T01:57:42.208Z,10.50
2017-10-27T02:00:09.813Z,10.50
2017-10-27T02:02:38.209Z,10.40
2017-10-27T02:05:05.810Z,10.40
2017-10-27T02:07:33.368Z,10.30
2017-10-27T02:10:00.993Z,10.30
2017-10-27T02:12:28.571Z,10.30
2017-10-27T02:14:57.100Z,10.30
2017-10-27T02:17:24.949Z,10.30
2017-10-27T02:19:52.508Z,10.30
2017-10-27T02:22:20.094Z,10.30
2017-10-27T02:24:47.656Z,10.20
2017-10-27T02:27:15.244Z,10.30
2017-10-27T02:29:42.813Z,10.30
2017-10-27T02:32:10.403Z,10.30
2017-10-27T02:34:37.963Z,10.30
2017-10-27T02:37:05.840Z,10.30
2017-10-27T02:39:33.404Z,10.20
2017-10-27T02:42:00.964Z,10.20
2017-10-27T02:44:28.548Z,10.20
2017-10-27T02:46:57.795Z,10.10
2017-10-27T02:49:25.380Z,10.10
2017-10-27T02:51:52.941Z,10.10
2017-10-27T02:54:20.582Z,10.10
2017-10-27T02:56:48.147Z,10.10
2017-10-27T02:59:15.733Z,10.10
2017-10-27T03:01:43.296Z,10.10
2017-10-27T03:04:10.880Z,10.10
2017-10-27T03:06:39.209Z,10.10
2017-10-27T03:09:06.807Z,10.10
2017-10-27T03:11:35.132Z,10.10
2017-10-27T03:14:02.722Z,10.10
2017-10-27T03:16:30.281Z,10.20
2017-10-27T03:18:59.201Z,10.20
2017-10-27T03:21:26.859Z,10.20
2017-10-27T03:23:54.529Z,10.10
2017-10-27T03:26:22.900Z,10.00
2017-10-27T03:28:50.741Z,10.00
2017-10-27T03:31:18.299Z,9.90
2017-10-27T03:33:45.858Z,9.90
2017-10-27T03:36:13.444Z,9.90
2017-10-27T03:38:41.000Z,9.90
2017-10-27T03:41:08.584Z,9.90
2017-10-27T03:43:36.244Z,9.90
2017-10-27T03:46:03.833Z,10.00
2017-10-27T03:48:31.457Z,9.90
2017-10-27T03:50:59.717Z,9.90
2017-10-27T03:53:27.272Z,9.90
2017-10-27T03:55:55.061Z,9.90
2017-10-27T03:58:22.621Z,9.90
2017-10-27T04:00:50.185Z,9.90
2017-10-27T04:03:17.776Z,9.80
2017-10-27T04:05:45.336Z,9.80
2017-10-27T04:08:12.923Z,9.80
2017-10-27T04:10:40.528Z,9.70
2017-10-27T04:13:08.289Z,9.70
2017-10-27T04:15:35.851Z,9.70
2017-10-27T04:18:03.409Z,9.70
2017-10-27T04:20:30.992Z,9.70
2017-10-27T04:22:59.756Z,9.80
2017-10-27T04:25:27.352Z,9.80
2017-10-27T04:27:54.928Z,9.80
2017-10-27T04:30:22.540Z,9.70
2017-10-27T04:32:50.096Z,9.70
2017-10-27T04:35:17.776Z,9.70
2017-10-27T04:37:46.101Z,9.70
2017-10-27T04:40:13.656Z,9.70
2017-10-27T04:42:41.240Z,9.70
2017-10-27T04:45:08.813Z,9.70
2017-10-27T04:47:36.394Z,9.70
2017-10-27T04:50:04.011Z,9.70
2017-10-27T04:52:31.608Z,9.70
2017-10-27T04:55:00.084Z,9.70
2017-10-27T04:57:27.941Z,9.70
2017-10-27T04:59:55.500Z,9.60
2017-10-27T05:02:23.085Z,9.60
2017-10-27T05:04:50.644Z,9.60
2017-10-27T05:07:18.228Z,9.60
2017-10-27T05:09:46.048Z,9.60
2017-10-27T05:12:14.557Z,9.60
2017-10-27T05:14:42.879Z,9.70
2017-10-27T05:17:16.589Z,9.70
2017-10-27T05:19:49.776Z,9.80
2017-10-27T05:22:23.141Z,9.80
2017-10-27T05:24:51.460Z,9.90
2017-10-27T05:27:19.049Z,9.80
2017-10-27T05:29:46.609Z,9.90
2017-10-27T05:32:14.212Z,9.90
2017-10-27T05:34:42.541Z,9.90
2017-10-27T05:37:10.120Z,9.90
2017-10-27T05:39:37.700Z,9.90
2017-10-27T05:42:06.028Z,9.90
2017-10-27T05:44:33.609Z,9.90
2017-10-27T05:47:01.177Z,10.00
2017-10-27T05:49:28.777Z,10.00
2017-10-27T05:51:57.271Z,10.00
2017-10-27T05:54:24.898Z,10.00
2017-10-27T05:56:52.614Z,10.00
2017-10-27T05:59:20.884Z,10.00
2017-10-27T06:01:48.449Z,10.00
2017-10-27T06:04:16.010Z,10.00
2017-10-27T06:06:43.896Z,9.90
2017-10-27T06:09:11.477Z,9.90
2017-10-27T06:11:39.065Z,10.00
2017-10-27T06:14:07.396Z,9.90
2017-10-27T06:16:35.084Z,9.90
2017-10-27T06:19:02.656Z,9.90
2017-10-27T06:21:31.007Z,9.80
2017-10-27T06:23:59.936Z,9.70
2017-10-27T06:26:28.289Z,9.60
2017-10-27T06:28:58.272Z,9.60
2017-10-27T06:31:25.863Z,9.60
2017-10-27T06:33:53.532Z,9.50
2017-10-27T06:36:21.111Z,9.50
2017-10-27T06:38:49.435Z,9.50
2017-10-27T06:41:17.020Z,9.40
2017-10-27T06:43:44.584Z,9.50
2017-10-27T06:46:12.218Z,9.40
2017-10-27T06:48:39.778Z,9.50
2017-10-27T06:51:07.360Z,9.50
2017-10-27T06:53:34.915Z,9.60
2017-10-27T06:56:02.500Z,9.60
2017-10-27T06:58:30.061Z,9.60
2017-10-27T07:00:58.957Z,9.60
2017-10-27T07:03:28.045Z,9.60
2017-10-27T07:05:57.288Z,9.70
2017-10-27T07:08:24.929Z,9.70
2017-10-27T07:10:53.252Z,9.70
2017-10-27T07:13:20.949Z,9.70
2017-10-27T07:15:48.508Z,9.80
2017-10-27T07:18:16.091Z,9.80
2017-10-27T07:20:44.449Z,9.90
2017-10-27T07:23:12.040Z,9.90
2017-10-27T07:25:40.369Z,10.10
2017-10-27T07:28:08.152Z,10.00
2017-10-27T07:30:35.716Z,10.40
2017-10-27T07:33:03.292Z,10.70
2017-10-27T07:35:31.647Z,10.50
2017-10-27T07:38:00.822Z,10.40
2017-10-27T07:40:28.413Z,10.40
2017-10-27T07:42:56.905Z,10.30
2017-10-27T07:45:24.493Z,10.30
2017-10-27T07:47:52.091Z,10.30
2017-10-27T07:50:19.681Z,10.40
2017-10-27T07:52:48.118Z,10.30
2017-10-27T07:55:15.705Z,10.30
2017-10-27T07:57:43.268Z,10.40
2017-10-27T08:00:10.859Z,11.50
2017-10-27T08:02:39.224Z,12.20
2017-10-27T08:05:06.895Z,12.20
2017-10-27T08:07:35.260Z,13.50
2017-10-27T08:10:03.659Z,13.70
2017-10-27T08:12:32.000Z,14.50
2017-10-27T08:15:00.912Z,14.20
2017-10-27T08:17:28.576Z,14.20
2017-10-27T08:19:57.161Z,13.50
2017-10-27T08:22:24.723Z,12.70
2017-10-27T08:24:52.286Z,12.00
2017-10-27T08:27:21.394Z,11.40
2017-10-27T08:29:49.904Z,11.00
2017-10-27T08:32:17.477Z,11.00
2017-10-27T08:34:45.054Z,10.90
2017-10-27T08:37:12.655Z,10.70
2017-10-27T08:39:40.996Z,10.60
2017-10-27T08:42:08.669Z,10.50
2017-10-27T08:44:36.248Z,11.10
2017-10-27T08:47:03.841Z,11.60
2017-10-27T08:49:31.469Z,11.50
2017-10-27T08:51:59.810Z,11.30
2017-10-27T08:54:27.376Z,11.10
2017-10-27T08:56:54.940Z,11.00
2017-10-27T08:59:22.528Z,10.90
2017-10-27T09:01:50.095Z,10.80
2017-10-27T09:04:18.273Z,11.00
2017-10-27T09:06:45.846Z,11.40
2017-10-27T09:09:14.211Z,12.70
2017-10-27T09:11:42.555Z,13.40
2017-10-27T09:14:10.149Z,13.40
2017-10-27T09:16:37.805Z,13.40
2017-10-27T09:19:05.472Z,12.60
2017-10-27T09:21:33.041Z,12.20
2017-10-27T09:24:00.632Z,12.10
2017-10-27T09:26:28.191Z,11.90
2017-10-27T09:28:55.776Z,11.60
2017-10-27T09:31:23.335Z,11.30
2017-10-27T09:33:50.929Z,11.20
2017-10-27T09:36:18.497Z,11.10
2017-10-27T09:38:46.121Z,11.10
2017-10-27T09:41:13.685Z,11.40
2017-10-27T09:43:41.253Z,12.80
2017-10-27T09:46:08.840Z,14.00
2017-10-27T09:48:36.495Z,14.50
2017-10-27T09:51:04.261Z,15.50
2017-10-27T09:53:31.824Z,15.50
2017-10-27T09:56:00.580Z,14.10
2017-10-27T09:58:28.276Z,14.10
2017-10-27T10:00:55.835Z,13.20
2017-10-27T10:03:23.421Z,13.00
2017-10-27T10:05:51.751Z,13.60
2017-10-27T10:08:19.340Z,13.50
2017-10-27T10:10:46.900Z,13.00
2017-10-27T10:13:15.520Z,11.90
2017-10-27T10:15:43.088Z,11.90
2017-10-27T10:18:10.648Z,11.80
2017-10-27T10:20:38.268Z,11.70
2017-10-27T10:23:05.837Z,11.60
2017-10-27T10:25:34.209Z,11.50
2017-10-27T10:28:01.771Z,11.40
2017-10-27T10:30:29.360Z,11.50
2017-10-27T10:32:57.205Z,12.20
2017-10-27T10:35:25.570Z,14.30
2017-10-27T10:37:53.904Z,13.60
2017-10-27T10:40:21.484Z,13.60
2017-10-27T10:42:49.043Z,12.70
2017-10-27T10:45:16.798Z,12.60
2017-10-27T10:47:44.400Z,12.40
2017-10-27T10:50:11.960Z,12.10
2017-10-27T10:52:39.547Z,12.10
2017-10-27T10:55:07.876Z,12.10
2017-10-27T10:57:35.460Z,12.10
2017-10-27T11:00:04.528Z,11.90
2017-10-27T11:02:32.141Z,11.90
2017-10-27T11:04:59.887Z,12.00
2017-10-27T11:07:27.448Z,12.00
2017-10-27T11:09:55.033Z,12.10
2017-10-27T11:12:23.364Z,11.60
2017-10-27T11:14:50.948Z,11.60
2017-10-27T11:17:18.516Z,11.50
2017-10-27T11:19:46.868Z,11.40
2017-10-27T11:22:14.436Z,11.30
2017-10-27T11:24:42.232Z,11.40
2017-10-27T11:27:10.569Z,11.80
2017-10-27T11:29:38.134Z,11.80
2017-10-27T11:32:05.736Z,11.80
2017-10-27T11:34:34.084Z,11.70
2017-10-27T11:37:01.645Z,11.70
2017-10-27T11:39:29.236Z,11.60
2017-10-27T11:41:57.904Z,11.60
2017-10-27T11:44:27.015Z,11.60
2017-10-27T11:46:55.356Z,11.70
2017-10-27T11:49:23.721Z,11.80
2017-10-27T11:51:51.312Z,11.70
2017-10-27T11:54:18.905Z,11.70
2017-10-27T11:56:46.477Z,11.50
2017-10-27T11:59:14.400Z,11.60
2017-10-27T12:01:41.964Z,11.80
2017-10-27T12:04:09.524Z,11.90
2017-10-27T12:06:38.860Z,12.00
2017-10-27T12:09:06.776Z,12.00
2017-10-27T12:11:34.344Z,12.00
2017-10-27T12:14:01.936Z,11.90
2017-10-27T12:16:30.495Z,11.70
2017-10-27T12:19:00.584Z,11.70
2017-10-27T12:21:28.145Z,11.70
2017-10-27T12:23:55.728Z,11.60
2017-10-27T12:26:23.312Z,11.50
2017-10-27T12:28:51.653Z,11.50
2017-10-27T12:31:19.249Z,11.50
2017-10-27T12:33:46.816Z,11.60
2017-10-27T12:36:15.197Z,11.70
2017-10-27T12:38:43.557Z,11.60
2017-10-27T12:41:12.629Z,11.50
2017-10-27T12:43:40.216Z,11.50
2017-10-27T12:46:07.780Z,11.40
2017-10-27T12:48:35.437Z,11.40
2017-10-27T12:51:03.013Z,11.30
2017-10-27T12:53:31.372Z,10.80
2017-10-27T12:56:00.656Z,10.70
2017-10-27T12:58:28.248Z,10.70
2017-10-27T13:00:55.812Z,10.60
2017-10-27T13:03:23.408Z,10.50
2017-10-27T13:05:51.024Z,10.20
2017-10-27T13:08:19.374Z,9.90
2017-10-27T13:10:46.936Z,9.80
2017-10-27T13:13:14.560Z,9.90
2017-10-27T13:15:42.164Z,11.30
2017-10-27T13:18:09.741Z,12.90
2017-10-27T13:20:37.336Z,14.50
2017-10-27T13:23:05.664Z,12.40
2017-10-27T13:25:33.252Z,12.30
2017-10-27T13:28:00.825Z,11.60
2017-10-27T13:30:29.676Z,11.00
2017-10-27T13:32:59.016Z,10.90
2017-10-27T13:35:27.384Z,10.60
2017-10-27T13:37:54.979Z,10.60
2017-10-27T13:40:22.539Z,10.50
2017-10-27T13:42:50.164Z,10.30
2017-10-27T13:45:17.728Z,10.20
2017-10-27T13:47:45.316Z,10.00
2017-10-27T13:50:12.892Z,9.90
2017-10-27T13:52:40.671Z,9.80
2017-10-27T13:55:08.239Z,9.80
2017-10-27T13:57:35.901Z,9.70
2017-10-27T14:00:03.563Z,9.70
2017-10-27T14:02:31.144Z,9.80
2017-10-27T14:05:00.248Z,9.90
2017-10-27T14:07:28.016Z,10.30
2017-10-27T14:09:55.584Z,10.40
2017-10-27T14:12:23.968Z,10.40
2017-10-27T14:14:52.335Z,10.30
2017-10-27T14:17:20.076Z,10.30
2017-10-27T14:19:47.645Z,10.20
2017-10-27T14:22:15.212Z,10.20
2017-10-27T14:24:42.800Z,10.10
2017-10-27T14:27:11.176Z,10.00
2017-10-27T14:29:39.545Z,10.00
2017-10-27T14:32:08.616Z,9.90
2017-10-27T14:34:36.484Z,9.90
2017-10-27T14:37:04.048Z,9.80
2017-10-27T14:39:31.628Z,9.80
2017-10-27T14:41:59.705Z,9.70
2017-10-27T14:44:27.464Z,9.70
2017-10-27T14:46:55.024Z,9.70
2017-10-27T14:49:22.582Z,9.70
2017-10-27T14:51:51.671Z,9.70
2017-10-27T14:54:19.228Z,9.60
2017-10-27T14:56:46.808Z,9.60
2017-10-27T14:59:14.381Z,9.60
2017-10-27T15:01:42.733Z,9.90
2017-10-27T15:04:10.316Z,9.90
2017-10-27T15:06:38.673Z,10.60
2017-10-27T15:09:06.237Z,10.50
2017-10-27T15:11:34.005Z,10.60
2017-10-27T15:14:02.341Z,10.30
2017-10-27T15:16:29.909Z,10.30
2017-10-27T15:18:58.054Z,10.10
2017-10-27T15:21:25.607Z,9.90
2017-10-27T15:23:53.961Z,10.10
2017-10-27T15:26:22.305Z,10.20
2017-10-27T15:28:49.912Z,10.20
2017-10-27T15:31:18.246Z,10.40
2017-10-27T15:33:45.816Z,10.40
2017-10-27T15:36:13.408Z,10.40
2017-10-27T15:38:41.733Z,9.90
2017-10-27T15:41:09.312Z,9.90
2017-10-27T15:43:36.876Z,9.80
2017-10-27T15:46:04.462Z,9.70
2017-10-27T15:48:32.788Z,9.50
2017-10-27T15:51:01.293Z,9.50
2017-10-27T15:53:28.852Z,9.40
2017-10-27T15:55:56.437Z,9.40
2017-10-27T15:58:24.100Z,9.30
2017-10-27T16:00:51.685Z,9.30
2017-10-27T16:03:20.012Z,9.20
2017-10-27T16:05:47.571Z,9.20
2017-10-27T16:08:15.164Z,9.20
2017-10-27T16:10:42.723Z,9.10
2017-10-27T16:13:10.310Z,9.20
2017-10-27T16:15:38.632Z,9.10
2017-10-27T16:18:06.216Z,9.10
2017-10-27T16:20:33.776Z,9.10
2017-10-27T16:23:02.881Z,9.00
2017-10-27T16:25:30.444Z,9.00
2017-10-27T16:27:58.204Z,8.90
2017-10-27T16:30:25.766Z,8.90
2017-10-27T16:32:53.323Z,8.80
2017-10-27T16:35:20.912Z,8.90
2017-10-27T16:37:49.236Z,8.80
2017-10-27T16:40:16.824Z,8.80
2017-10-27T16:42:44.383Z,8.90
2017-10-27T16:45:11.964Z,9.00
2017-10-27T16:50:14.311Z,9.00
2017-10-27T16:52:41.868Z,9.00
2017-10-27T16:55:09.451Z,9.00
2017-10-27T16:57:37.008Z,9.10
2017-10-27T17:00:04.608Z,9.00
2017-10-27T17:02:32.936Z,9.00
2017-10-27T17:05:02.768Z,9.00
2017-10-27T17:07:30.333Z,9.00
2017-10-27T17:09:57.922Z,9.00
2017-10-27T17:12:26.273Z,9.00
2017-10-27T17:14:55.401Z,9.00
2017-10-27T17:17:23.816Z,9.00
2017-10-27T17:19:51.416Z,8.90
2017-10-27T17:22:19.784Z,9.00
2017-10-27T17:24:47.484Z,9.00
2017-10-27T17:27:15.883Z,8.90
2017-10-27T17:29:43.456Z,8.80
2017-10-27T17:32:11.060Z,8.80
2017-10-27T17:34:38.623Z,8.70
2017-10-27T17:37:06.280Z,8.60
2017-10-27T17:39:33.843Z,8.60
2017-10-27T17:42:02.841Z,8.60
2017-10-27T17:44:30.407Z,8.60
2017-10-27T17:46:58.776Z,8.60
2017-10-27T17:49:27.142Z,8.60
2017-10-27T17:51:54.704Z,8.50
2017-10-27T17:54:22.297Z,8.60
2017-10-27T17:56:50.623Z,8.60
2017-10-27T17:59:18.253Z,8.60
2017-10-27T18:01:46.043Z,8.70
2017-10-27T18:04:13.705Z,8.70
2017-10-27T18:06:41.269Z,8.60
2017-10-27T18:09:08.851Z,8.60
2017-10-27T18:11:36.412Z,8.50
2017-10-27T18:14:03.996Z,8.50
2017-10-27T18:16:31.556Z,8.50
2017-10-27T18:19:00.056Z,8.50
2017-10-27T18:21:27.623Z,8.50
2017-10-27T18:23:55.216Z,8.50
2017-10-27T18:26:22.811Z,8.50
2017-10-27T18:28:50.467Z,8.50
2017-10-27T18:31:18.056Z,8.50
2017-10-27T18:33:46.380Z,8.50
2017-10-27T18:36:14.186Z,8.40
2017-10-27T18:38:42.325Z,8.40
2017-10-27T18:41:09.884Z,8.40
2017-10-27T18:43:37.470Z,8.40
2017-10-27T18:46:05.036Z,8.40
2017-10-27T18:48:32.615Z,8.40
2017-10-27T18:51:01.897Z,8.40
2017-10-27T18:53:29.557Z,8.30
2017-10-27T18:55:58.221Z,8.30
2017-10-27T18:58:25.803Z,8.30
2017-10-27T19:00:53.364Z,8.30
2017-10-27T19:03:20.946Z,8.40
2017-10-27T19:05:49.273Z,8.40
2017-10-27T19:08:17.064Z,8.30
2017-10-27T19:10:44.624Z,8.40
2017-10-27T19:13:12.952Z,8.40
2017-10-27T19:15:40.532Z,8.40
2017-10-27T19:18:08.129Z,8.50
2017-10-27T19:20:36.133Z,8.50
2017-10-27T19:23:03.700Z,8.60
2017-10-27T19:25:31.262Z,8.70
2017-10-27T19:27:59.769Z,8.70
2017-10-27T19:30:27.332Z,8.80
2017-10-27T19:32:54.916Z,8.80
2017-10-27T19:35:22.481Z,8.80
2017-10-27T19:37:50.072Z,8.80
2017-10-27T19:40:18.396Z,8.90
2017-10-27T19:42:45.981Z,8.80
2017-10-27T19:45:13.540Z,8.90
2017-10-27T19:47:41.125Z,9.00
2017-10-27T19:50:09.452Z,9.00
2017-10-27T19:52:37.036Z,8.90
2017-10-27T19:55:04.600Z,9.00
2017-10-27T19:57:32.180Z,9.10
2017-10-27T20:00:00.859Z,9.00
2017-10-27T20:02:28.612Z,9.00
2017-10-27T20:04:56.171Z,9.10
2017-10-27T20:07:25.248Z,9.00
2017-10-27T20:09:52.836Z,9.00
2017-10-27T20:12:20.413Z,9.10
2017-10-27T20:14:48.766Z,9.10
2017-10-27T20:17:17.837Z,9.10
2017-10-27T20:19:46.184Z,9.10
2017-10-27T20:22:13.808Z,9.10
2017-10-27T20:24:42.992Z,9.10
2017-10-27T20:27:10.552Z,9.10
2017-10-27T20:29:38.140Z,9.20
2017-10-27T20:32:06.465Z,9.20
2017-10-27T20:34:34.079Z,9.20
2017-10-27T20:37:02.752Z,9.20
2017-10-27T20:39:30.332Z,9.20
2017-10-27T20:41:58.668Z,9.10
2017-10-27T20:44:26.653Z,9.10
2017-10-27T20:46:54.366Z,9.10
2017-10-27T20:49:22.191Z,9.10
2017-10-27T20:51:49.956Z,9.00
2017-10-27T20:54:19.345Z,8.80
2017-10-27T20:56:46.902Z,8.80
2017-10-27T20:59:14.489Z,8.90
2017-10-27T21:01:42.052Z,8.80
2017-10-27T21:04:09.737Z,8.80
2017-10-27T21:06:38.064Z,8.90
2017-10-27T21:09:05.643Z,8.80
2017-10-27T21:11:33.964Z,8.90
2017-10-27T21:14:02.739Z,8.90
2017-10-27T21:16:31.104Z,8.90
2017-10-27T21:19:00.456Z,8.90
2017-10-27T21:21:28.017Z,8.90
2017-10-27T21:23:55.600Z,8.90
2017-10-27T21:26:23.165Z,8.80
2017-10-27T21:28:50.931Z,8.70
2017-10-27T21:31:18.496Z,8.60
2017-10-27T21:33:46.055Z,8.60
2017-10-27T21:36:13.639Z,8.50
2017-10-27T21:38:42.064Z,8.30
2017-10-27T21:41:09.653Z,8.30
2017-10-27T21:43:37.228Z,8.40
2017-10-27T21:46:04.818Z,8.30
2017-10-27T21:48:32.388Z,8.20
2017-10-27T21:51:00.960Z,8.30
2017-10-27T21:53:29.304Z,8.20
2017-10-27T21:55:56.936Z,8.20
2017-10-27T21:58:24.501Z,8.20
2017-10-27T22:00:54.240Z,8.20
2017-10-27T22:03:21.800Z,8.20
2017-10-27T22:05:49.362Z,8.20
2017-10-27T22:08:16.948Z,8.20
2017-10-27T22:10:45.284Z,8.20
2017-10-27T22:13:12.865Z,8.20
2017-10-27T22:15:40.425Z,8.20
2017-10-27T22:18:08.085Z,8.10
2017-10-27T22:20:35.648Z,8.20
2017-10-27T22:23:05.084Z,8.10
2017-10-27T22:25:32.652Z,8.10
2017-10-27T22:28:01.908Z,8.10
2017-10-27T22:30:29.572Z,8.20
2017-10-27T22:32:57.920Z,8.30
2017-10-27T22:35:25.485Z,8.30
2017-10-27T22:37:53.277Z,8.30
2017-10-27T22:40:20.940Z,8.30
2017-10-27T22:42:48.505Z,8.30
2017-10-27T22:45:16.087Z,8.30
2017-10-27T22:47:44.413Z,8.30
2017-10-27T22:50:11.996Z,8.20
2017-10-27T22:52:40.325Z,8.30
2017-10-27T22:55:07.908Z,8.30
2017-10-27T22:57:35.468Z,8.20
2017-10-27T23:00:03.052Z,8.20
2017-10-27T23:02:30.613Z,8.10
2017-10-27T23:04:58.204Z,8.10
2017-10-27T23:07:32.240Z,8.00
2017-10-27T23:10:00.864Z,8.00
2017-10-27T23:12:28.456Z,8.00
2017-10-27T23:14:56.808Z,8.00
2017-10-27T23:17:24.367Z,8.00
2017-10-27T23:19:52.280Z,8.10
2017-10-27T23:22:19.909Z,8.00
2017-10-27T23:24:47.488Z,8.10
2017-10-27T23:27:15.812Z,8.10
2017-10-27T23:29:43.391Z,8.10
2017-10-27T23:32:11.750Z,8.20
2017-10-27T23:34:39.335Z,8.20
2017-10-27T23:37:06.900Z,8.20
2017-10-27T23:39:34.889Z,8.20
2017-10-27T23:42:03.474Z,8.10
2017-10-27T23:44:31.038Z,8.10
2017-10-27T23:46:58.685Z,8.10
2017-10-27T23:49:26.236Z,8.10
2017-10-27T23:51:53.824Z,8.10
2017-10-27T23:54:22.152Z,8.00
2017-10-27T23:56:49.815Z,8.00
2017-10-27T23:59:17.376Z,8.00
